Time;durP1;ratioP1;P1;durP2;ratioP2;P2;SDS_P1;SDS_P2;PMS_P1;PMS_P2;Temp;Humidity;BMP_temperature;BMP_pressure;BME280_temperature;BME280_humidity;BME280_pressure;Samples;Min_cycle;Max_cycle;Signal;HPM_P1;HPM_P2
2023/11/14 00:00:06;;;;;;;1.20;1.10;;;4.30;99.90;;;;;;5106560;28;20051;-90
2023/11/14 00:02:34;;;;;;;1.15;0.70;;;4.20;99.90;;;;;;5116382;28;20036;-87
2023/11/14 00:05:08;;;;;;;1.33;0.75;;;4.20;99.90;;;;;;5110308;28;20028;-91
2023/11/14 00:07:34;;;;;;;0.63;0.57;;;4.10;99.90;;;;;;5089172;28;20125;-90
2023/11/14 00:09:59;;;;;;;0.90;0.45;;;4.10;99.90;;;;;;5118323;28;20389;-88
2023/11/14 00:12:27;;;;;;;0.50;0.40;;;4.00;99.90;;;;;;5099134;28;20020;-89
2023/11/14 00:14:53;;;;;;;;;;;4.00;99.90;;;;;;5104648;28;20036;-89
2023/11/14 00:17:19;;;;;;;1.70;0.60;;;4.00;99.90;;;;;;5108378;28;19904;-88
2023/11/14 00:19:45;;;;;;;0.57;0.43;;;4.00;99.90;;;;;;5103005;28;20020;-90
2023/11/14 00:22:11;;;;;;;0.47;0.47;;;4.00;99.90;;;;;;5113749;28;20027;-88
2023/11/14 00:24:39;;;;;;;0.40;0.30;;;3.90;99.90;;;;;;5112485;28;20020;-88
2023/11/14 00:27:05;;;;;;;1.80;0.75;;;3.90;99.90;;;;;;5098163;28;20086;-88
2023/11/14 00:29:31;;;;;;;1.35;0.52;;;3.90;99.90;;;;;;5092176;28;20020;-90
2023/11/14 00:31:57;;;;;;;0.63;0.20;;;3.90;99.90;;;;;;5093605;28;20031;-90
2023/11/14 00:34:23;;;;;;;0.40;0.40;;;3.80;99.90;;;;;;5129576;28;20040;-88
2023/11/14 00:36:50;;;;;;;0.55;0.47;;;3.90;99.90;;;;;;5137694;28;20061;-88
2023/11/14 00:39:17;;;;;;;0.90;0.57;;;3.90;99.90;;;;;;5131905;28;20012;-88
2023/11/14 00:41:44;;;;;;;0.47;0.47;;;3.90;99.90;;;;;;5128598;28;20068;-88
2023/11/14 00:44:10;;;;;;;0.22;0.22;;;4.00;99.90;;;;;;5099753;28;20032;-91
2023/11/14 00:46:36;;;;;;;0.43;0.43;;;4.00;99.90;;;;;;5089577;28;20001;-89
2023/11/14 00:49:03;;;;;;;0.43;0.30;;;4.00;99.90;;;;;;5117858;28;20024;-88
2023/11/14 00:51:29;;;;;;;1.10;0.60;;;3.90;99.90;;;;;;5119889;28;20073;-88
2023/11/14 00:53:56;;;;;;;0.90;0.30;;;3.90;99.90;;;;;;5111963;28;20024;-92
2023/11/14 00:56:25;;;;;;;0.90;0.85;;;3.90;99.90;;;;;;5104595;28;20028;-88
2023/11/14 00:58:52;;;;;;;0.85;0.60;;;3.90;99.90;;;;;;5111410;28;20020;-90
2023/11/14 01:01:19;;;;;;;0.57;0.57;;;3.90;99.90;;;;;;5108800;28;20468;-89
2023/11/14 01:03:47;;;;;;;0.80;0.60;;;4.00;99.90;;;;;;5121471;28;20039;-89
2023/11/14 01:06:12;;;;;;;1.52;0.60;;;4.00;99.90;;;;;;5126783;28;20248;-94
2023/11/14 01:08:43;;;;;;;0.73;0.50;;;4.00;99.90;;;;;;5105605;28;20039;-87
2023/11/14 01:11:10;;;;;;;0.60;0.40;;;4.00;99.90;;;;;;5105369;28;20020;-88
2023/11/14 01:13:36;;;;;;;1.10;0.70;;;4.00;99.90;;;;;;5103299;28;20058;-87
2023/11/14 01:16:03;;;;;;;0.60;0.60;;;4.00;99.90;;;;;;5112958;28;20023;-88
2023/11/14 01:18:29;;;;;;;1.20;0.70;;;3.90;99.90;;;;;;5112044;28;20023;-90
2023/11/14 01:20:55;;;;;;;0.43;0.43;;;3.90;99.90;;;;;;5110250;28;20023;-89
2023/11/14 01:23:21;;;;;;;0.32;0.32;;;3.90;99.90;;;;;;5096597;28;20039;-90
2023/11/14 01:25:48;;;;;;;1.25;0.50;;;3.80;99.90;;;;;;5133891;28;20025;-88
2023/11/14 01:28:14;;;;;;;0.60;0.60;;;3.80;99.90;;;;;;5101512;28;20027;-90
2023/11/14 01:30:40;;;;;;;0.55;0.43;;;3.90;99.90;;;;;;5122837;28;20020;-86
2023/11/14 01:33:06;;;;;;;0.30;0.28;;;3.90;99.90;;;;;;5123738;28;20032;-90
2023/11/14 01:35:32;;;;;;;0.75;0.40;;;3.80;99.90;;;;;;5103682;28;20020;-90
2023/11/14 01:37:58;;;;;;;0.45;0.40;;;3.90;99.90;;;;;;5090211;28;20027;-89
2023/11/14 01:40:24;;;;;;;0.20;0.20;;;3.90;99.90;;;;;;5094050;28;20027;-91
2023/11/14 01:42:50;;;;;;;0.43;0.30;;;3.90;99.90;;;;;;5107231;28;20051;-91
2023/11/14 01:45:16;;;;;;;0.55;0.45;;;3.90;99.90;;;;;;5100347;28;20059;-89
2023/11/14 01:47:47;;;;;;;0.50;0.30;;;3.90;99.90;;;;;;5094129;28;20046;-92
2023/11/14 01:50:13;;;;;;;0.40;0.40;;;3.90;99.90;;;;;;5095020;28;20208;-92
2023/11/14 01:52:39;;;;;;;0.50;0.35;;;3.90;99.90;;;;;;5101640;28;20053;-87
2023/11/14 01:55:07;;;;;;;0.80;0.40;;;3.90;99.90;;;;;;5115917;28;20080;-88
2023/11/14 01:57:33;;;;;;;0.47;0.45;;;3.90;99.90;;;;;;5110570;28;20028;-89
2023/11/14 02:00:00;;;;;;;0.32;0.32;;;3.90;99.90;;;;;;5123311;28;20020;-89
2023/11/14 02:02:27;;;;;;;0.60;0.60;;;3.90;99.90;;;;;;5114889;28;20040;-88
2023/11/14 02:04:55;;;;;;;0.45;0.45;;;4.00;99.90;;;;;;5110039;28;20016;-87
2023/11/14 02:07:22;;;;;;;1.00;0.70;;;4.00;99.90;;;;;;5139726;28;20031;-87
2023/11/14 02:09:50;;;;;;;0.45;0.45;;;4.10;99.90;;;;;;5120592;28;20031;-90
2023/11/14 02:12:18;;;;;;;1.45;0.52;;;4.10;99.90;;;;;;5127337;28;20020;-89
2023/11/14 02:14:44;;;;;;;0.43;0.43;;;4.10;99.90;;;;;;5130938;28;20028;-89
2023/11/14 02:17:16;;;;;;;0.77;0.77;;;4.00;99.90;;;;;;5130071;28;20020;-87
2023/11/14 02:19:45;;;;;;;0.93;0.85;;;4.00;99.90;;;;;;5116132;28;20020;-91
2023/11/14 02:22:10;;;;;;;1.45;0.50;;;3.90;99.90;;;;;;5089695;28;20050;-87
2023/11/14 02:24:40;;;;;;;0.95;0.35;;;3.90;99.90;;;;;;5083370;28;20020;-88
2023/11/14 02:27:07;;;;;;;0.30;0.30;;;3.90;99.90;;;;;;5106082;28;20044;-87
2023/11/14 02:29:37;;;;;;;0.55;0.50;;;3.80;99.90;;;;;;5112228;28;20027;-88
2023/11/14 02:32:03;;;;;;;0.52;0.40;;;3.80;99.90;;;;;;5104257;28;20023;-88
2023/11/14 02:34:29;;;;;;;1.65;0.73;;;3.80;99.90;;;;;;5118603;28;20004;-89
2023/11/14 02:36:55;;;;;;;0.57;0.57;;;3.80;99.90;;;;;;5114566;28;20043;-87
2023/11/14 02:39:21;;;;;;;0.52;0.43;;;3.80;99.90;;;;;;5106009;28;20052;-87
2023/11/14 02:41:47;;;;;;;0.60;0.60;;;3.90;99.90;;;;;;5085820;28;20543;-87
2023/11/14 02:44:13;;;;;;;0.93;0.55;;;3.90;99.90;;;;;;5107029;28;20043;-87
2023/11/14 02:46:39;;;;;;;0.70;0.70;;;3.90;99.90;;;;;;5110497;28;20040;-88
2023/11/14 02:49:36;;;;;;;0.57;0.57;;;3.90;99.90;;;;;;5101274;28;20031;-87
2023/11/14 02:52:03;;;;;;;1.02;0.80;;;3.90;99.90;;;;;;5050378;28;20403;-89
2023/11/14 02:54:29;;;;;;;0.77;0.63;;;3.90;99.90;;;;;;5085209;28;20038;-87
2023/11/14 02:56:55;;;;;;;0.80;0.80;;;3.90;99.90;;;;;;5127654;28;20036;-91
2023/11/14 02:59:22;;;;;;;1.00;0.93;;;3.90;99.90;;;;;;5111427;28;20083;-88
2023/11/14 03:01:48;;;;;;;1.30;0.90;;;3.90;99.90;;;;;;5119731;28;20070;-88
2023/11/14 03:04:15;;;;;;;1.70;1.02;;;4.00;99.90;;;;;;5120025;28;20028;-89
2023/11/14 03:06:41;;;;;;;0.88;0.88;;;4.00;99.90;;;;;;5113801;28;20047;-89
2023/11/14 03:09:07;;;;;;;1.13;1.02;;;4.00;99.90;;;;;;5096048;28;20019;-90
2023/11/14 03:11:33;;;;;;;2.70;1.10;;;4.00;99.90;;;;;;5100916;28;20020;-88
2023/11/14 03:14:00;;;;;;;2.63;1.42;;;4.00;99.90;;;;;;5101583;28;20024;-89
2023/11/14 03:16:26;;;;;;;2.03;1.00;;;4.00;99.90;;;;;;5096372;28;20023;-88
2023/11/14 03:18:52;;;;;;;1.90;1.20;;;4.00;99.90;;;;;;5087283;28;20580;-89
2023/11/14 03:21:19;;;;;;;3.80;0.98;;;4.00;99.90;;;;;;5087389;28;20016;-88
2023/11/14 03:23:45;;;;;;;4.00;1.10;;;4.10;99.90;;;;;;5110634;28;20088;-89
2023/11/14 03:26:11;;;;;;;1.17;0.85;;;4.10;99.90;;;;;;5101008;28;20023;-91
2023/11/14 03:28:37;;;;;;;1.13;0.98;;;4.10;99.90;;;;;;5092913;28;20087;-91
2023/11/14 03:31:03;;;;;;;3.33;1.23;;;4.10;99.90;;;;;;5097923;28;20028;-94
2023/11/14 03:33:29;;;;;;;3.08;1.52;;;4.20;99.90;;;;;;5096518;28;20035;-90
2023/11/14 03:35:55;;;;;;;1.80;0.93;;;4.20;99.90;;;;;;5084044;28;20028;-90
2023/11/14 03:38:21;;;;;;;3.50;1.10;;;4.20;99.90;;;;;;5125762;28;20019;-84
2023/11/14 03:40:47;;;;;;;2.85;0.82;;;4.20;99.90;;;;;;5119388;28;20036;-91
2023/11/14 03:43:13;;;;;;;1.35;1.00;;;4.20;99.90;;;;;;5095732;28;20040;-90
2023/11/14 03:45:40;;;;;;;1.48;0.70;;;4.10;99.90;;;;;;5089606;28;20363;-91
2023/11/14 03:48:08;;;;;;;0.85;0.73;;;4.10;99.90;;;;;;5101023;28;20024;-93
2023/11/14 03:50:34;;;;;;;0.98;0.73;;;4.20;99.90;;;;;;5097912;28;20484;-90
2023/11/14 03:53:00;;;;;;;1.65;0.80;;;4.20;99.90;;;;;;5087757;28;20023;-92
2023/11/14 03:55:26;;;;;;;1.02;0.90;;;4.20;99.90;;;;;;5102959;28;20024;-90
2023/11/14 03:57:53;;;;;;;5.80;1.27;;;4.30;99.90;;;;;;5117813;28;20023;-91
2023/11/14 04:00:19;;;;;;;0.70;0.70;;;4.30;99.90;;;;;;5121923;28;20022;-91
2023/11/14 04:02:45;;;;;;;1.42;0.77;;;4.20;99.90;;;;;;5105514;28;20027;-89
2023/11/14 04:05:11;;;;;;;1.50;0.70;;;4.20;99.90;;;;;;5099616;28;20081;-90
2023/11/14 04:07:37;;;;;;;1.73;1.08;;;4.20;99.90;;;;;;5084157;28;21365;-93
2023/11/14 04:10:03;;;;;;;1.00;0.77;;;4.20;99.90;;;;;;5098488;28;20026;-90
2023/11/14 04:12:29;;;;;;;1.75;1.08;;;4.20;99.90;;;;;;5102604;28;20040;-88
2023/11/14 04:14:56;;;;;;;1.85;1.00;;;4.20;99.90;;;;;;5120932;28;20031;-90
2023/11/14 04:17:22;;;;;;;0.63;0.63;;;4.30;99.90;;;;;;5105580;28;20035;-88
2023/11/14 04:19:48;;;;;;;1.23;0.82;;;4.20;99.90;;;;;;5099487;28;20027;-89
2023/11/14 04:22:14;;;;;;;0.88;0.60;;;4.20;99.90;;;;;;5121224;28;20018;-86
2023/11/14 04:24:40;;;;;;;1.38;0.85;;;4.20;99.90;;;;;;5103162;28;20019;-89
2023/11/14 04:27:06;;;;;;;1.35;0.70;;;4.30;99.90;;;;;;5112889;28;20031;-90
2023/11/14 04:29:33;;;;;;;2.05;0.93;;;4.30;99.90;;;;;;5103857;28;20028;-93
2023/11/14 04:31:59;;;;;;;0.82;0.63;;;4.30;99.90;;;;;;5111732;28;20028;-93
2023/11/14 04:34:27;;;;;;;2.40;0.95;;;4.20;99.90;;;;;;5115627;28;20065;-92
2023/11/14 04:36:53;;;;;;;0.85;0.82;;;4.30;99.90;;;;;;5085391;28;20051;-93
2023/11/14 04:39:19;;;;;;;1.23;0.90;;;4.20;99.90;;;;;;5127231;28;20020;-90
2023/11/14 04:41:45;;;;;;;1.00;0.73;;;4.20;99.90;;;;;;5100752;28;20053;-92
2023/11/14 04:44:16;;;;;;;0.85;0.80;;;4.30;99.90;;;;;;5122315;28;20030;-90
2023/11/14 04:46:45;;;;;;;1.92;0.93;;;4.30;99.90;;;;;;5117974;28;20016;-91
2023/11/14 04:49:13;;;;;;;1.20;0.73;;;4.30;99.90;;;;;;5113656;28;20020;-90
2023/11/14 04:51:40;;;;;;;1.55;1.02;;;4.30;99.90;;;;;;5122715;28;20050;-93
2023/11/14 04:54:07;;;;;;;0.57;0.55;;;4.30;99.90;;;;;;5113843;28;20054;-84
2023/11/14 04:56:34;;;;;;;0.63;0.60;;;4.30;99.90;;;;;;5078907;28;20054;-92
2023/11/14 04:59:02;;;;;;;1.20;0.82;;;4.30;99.90;;;;;;5067292;28;20541;-91
2023/11/14 05:01:28;;;;;;;1.70;0.77;;;4.40;99.90;;;;;;5047720;28;20154;-92
2023/11/14 05:03:54;;;;;;;0.75;0.68;;;4.30;99.90;;;;;;5071083;28;20502;-87
2023/11/14 05:06:20;;;;;;;1.05;0.60;;;4.30;99.90;;;;;;5058494;28;20108;-92
2023/11/14 05:08:47;;;;;;;0.85;0.52;;;4.30;99.90;;;;;;5049543;28;20098;-92
2023/11/14 05:11:13;;;;;;;1.02;0.80;;;4.30;99.90;;;;;;5071731;28;20044;-91
2023/11/14 05:13:40;;;;;;;2.78;1.05;;;4.30;99.90;;;;;;5093900;28;20051;-90
2023/11/14 05:16:08;;;;;;;2.15;0.80;;;4.30;99.90;;;;;;5049957;28;20032;-92
2023/11/14 05:18:33;;;;;;;2.30;1.20;;;4.30;99.90;;;;;;5065984;28;20094;-89
2023/11/14 05:20:59;;;;;;;3.33;0.90;;;4.40;99.90;;;;;;5072891;28;20517;-89
2023/11/14 05:23:25;;;;;;;2.13;0.93;;;4.40;99.90;;;;;;5082753;28;20029;-89
2023/11/14 05:25:51;;;;;;;2.17;0.77;;;4.40;99.90;;;;;;5079802;28;20051;-88
2023/11/14 05:28:17;;;;;;;2.17;0.80;;;4.40;99.90;;;;;;5125939;28;20012;-90
2023/11/14 05:30:43;;;;;;;1.02;0.90;;;4.40;99.90;;;;;;5122890;28;20035;-89
2023/11/14 05:33:09;;;;;;;3.53;1.38;;;4.40;99.90;;;;;;5119797;28;20019;-88
2023/11/14 05:35:35;;;;;;;0.60;0.50;;;4.50;99.90;;;;;;5095536;28;20023;-91
2023/11/14 05:38:02;;;;;;;1.10;0.70;;;4.50;99.90;;;;;;5102514;28;20016;-88
2023/11/14 05:40:31;;;;;;;1.08;0.70;;;4.50;99.90;;;;;;5111690;28;20141;-91
2023/11/14 05:42:57;;;;;;;1.05;0.93;;;4.60;99.90;;;;;;5099458;28;20452;-90
2023/11/14 05:45:23;;;;;;;4.32;2.92;;;4.50;99.90;;;;;;5093094;28;20028;-89
2023/11/14 05:47:50;;;;;;;0.82;0.60;;;4.60;99.90;;;;;;5094367;28;20024;-92
2023/11/14 05:50:16;;;;;;;3.08;1.65;;;4.60;99.90;;;;;;5099581;28;20020;-90
2023/11/14 05:52:42;;;;;;;2.67;1.20;;;4.60;99.90;;;;;;5121304;28;20103;-91
2023/11/14 05:55:08;;;;;;;1.65;0.90;;;4.70;99.90;;;;;;5096798;28;20055;-91
2023/11/14 05:57:34;;;;;;;1.42;0.93;;;4.70;99.90;;;;;;5098994;28;20023;-91
2023/11/14 06:00:00;;;;;;;2.00;1.08;;;4.70;99.90;;;;;;5109562;28;20051;-90
2023/11/14 06:02:29;;;;;;;1.83;1.05;;;4.70;99.90;;;;;;5094846;28;20603;-92
2023/11/14 06:04:55;;;;;;;2.95;2.25;;;4.70;99.90;;;;;;5108883;28;20020;-91
2023/11/14 06:07:22;;;;;;;1.80;0.70;;;4.80;99.90;;;;;;5102856;28;20034;-92
2023/11/14 06:09:50;;;;;;;3.28;3.00;;;4.80;99.90;;;;;;5126154;28;20377;-94
2023/11/14 06:12:17;;;;;;;0.57;0.50;;;4.70;99.90;;;;;;5089898;28;20055;-92
2023/11/14 06:14:43;;;;;;;1.00;0.70;;;4.70;99.90;;;;;;5102022;28;20020;-90
2023/11/14 06:17:11;;;;;;;0.60;0.60;;;4.70;99.90;;;;;;5097899;28;20498;-92
2023/11/14 06:19:38;;;;;;;1.70;1.30;;;4.70;99.90;;;;;;5102477;28;20031;-93
2023/11/14 06:22:05;;;;;;;1.77;0.70;;;4.80;99.90;;;;;;5099760;28;20019;-91
2023/11/14 06:24:32;;;;;;;2.38;1.00;;;4.90;99.90;;;;;;5103195;28;20500;-94
2023/11/14 06:26:59;;;;;;;1.65;0.90;;;4.90;99.90;;;;;;5114681;28;20023;-92
2023/11/14 06:29:25;;;;;;;1.15;0.68;;;5.00;99.90;;;;;;5108605;28;20096;-93
2023/11/14 06:31:51;;;;;;;1.70;0.88;;;5.10;99.90;;;;;;5109279;28;20075;-91
2023/11/14 06:34:18;;;;;;;1.70;1.13;;;5.00;99.90;;;;;;5106087;28;20030;-94
2023/11/14 06:36:44;;;;;;;1.58;1.25;;;5.00;99.90;;;;;;5102672;28;20035;-92
2023/11/14 06:39:10;;;;;;;1.73;1.23;;;5.00;99.90;;;;;;5085485;28;20029;-90
2023/11/14 06:41:36;;;;;;;1.90;1.48;;;5.10;99.90;;;;;;5072182;28;20068;-92
2023/11/14 06:44:02;;;;;;;0.75;0.52;;;5.00;99.90;;;;;;5073979;28;20536;-92
2023/11/14 06:46:28;;;;;;;1.55;0.60;;;5.00;99.90;;;;;;5072802;28;20052;-92
2023/11/14 06:48:54;;;;;;;0.40;0.40;;;4.90;99.90;;;;;;5069367;28;20029;-92
2023/11/14 06:51:20;;;;;;;2.95;0.80;;;4.90;99.90;;;;;;5053757;28;20056;-91
2023/11/14 06:53:48;;;;;;;1.10;0.82;;;4.80;99.90;;;;;;5089155;28;20059;-90
2023/11/14 06:56:15;;;;;;;2.67;1.48;;;4.80;99.90;;;;;;5076184;28;20067;-90
2023/11/14 06:58:41;;;;;;;1.15;0.93;;;4.90;99.90;;;;;;5062869;28;20040;-91
2023/11/14 07:01:10;;;;;;;3.70;0.93;;;4.80;99.90;;;;;;5050604;28;20025;-90
2023/11/14 07:03:35;;;;;;;1.77;1.50;;;4.90;99.90;;;;;;5067731;28;20048;-92
2023/11/14 07:06:03;;;;;;;5.82;5.28;;;4.90;99.90;;;;;;5064961;28;20179;-93
2023/11/14 07:08:29;;;;;;;2.45;2.00;;;5.00;99.90;;;;;;5052746;28;20447;-93
2023/11/14 07:10:54;;;;;;;2.42;1.63;;;5.00;99.90;;;;;;5058995;28;20021;-92
2023/11/14 07:13:20;;;;;;;10.38;4.30;;;5.00;99.90;;;;;;5067438;28;20167;-93
2023/11/14 07:15:47;;;;;;;5.00;3.20;;;5.00;99.90;;;;;;5073231;28;20008;-93
2023/11/14 07:18:13;;;;;;;2.60;1.65;;;5.00;99.90;;;;;;5089806;28;20024;-94
2023/11/14 07:20:39;;;;;;;6.03;2.20;;;5.10;99.90;;;;;;5099007;28;20119;-92
2023/11/14 07:23:05;;;;;;;2.22;1.52;;;5.00;99.90;;;;;;5091467;28;20032;-87
2023/11/14 07:25:34;;;;;;;1.55;1.25;;;5.00;99.90;;;;;;5098624;28;20066;-89
2023/11/14 07:28:00;;;;;;;3.03;2.05;;;5.00;99.90;;;;;;5094795;28;20032;-91
2023/11/14 07:30:27;;;;;;;6.57;2.20;;;4.90;99.90;;;;;;5082874;28;20024;-90
2023/11/14 07:32:53;;;;;;;1.95;0.93;;;5.00;99.90;;;;;;5099431;28;20031;-91
2023/11/14 07:35:21;;;;;;;2.85;1.52;;;4.90;99.90;;;;;;5084994;28;20426;-93
2023/11/14 07:37:47;;;;;;;;;;;4.90;99.90;;;;;;5079238;28;20184;-90
2023/11/14 07:40:13;;;;;;;4.05;1.63;;;4.90;99.90;;;;;;5090635;28;19989;-91
2023/11/14 07:42:39;;;;;;;2.25;1.40;;;4.80;99.90;;;;;;5118493;28;20048;-87
2023/11/14 07:45:06;;;;;;;1.95;1.10;;;4.80;99.90;;;;;;5136703;28;20011;-91
2023/11/14 07:47:33;;;;;;;3.35;2.28;;;4.70;99.90;;;;;;5128360;28;20088;-91
2023/11/14 07:49:59;;;;;;;2.60;1.30;;;4.70;99.90;;;;;;5079537;28;20404;-90
2023/11/14 07:52:25;;;;;;;3.17;1.58;;;4.70;99.90;;;;;;5095272;28;20024;-92
2023/11/14 07:54:53;;;;;;;6.22;2.08;;;4.70;99.90;;;;;;5105419;28;20047;-92
2023/11/14 07:57:19;;;;;;;1.95;1.52;;;4.70;99.90;;;;;;5115022;28;20076;-91
2023/11/14 07:59:45;;;;;;;2.72;1.77;;;4.70;99.90;;;;;;5106446;28;20108;-88
2023/11/14 08:02:11;;;;;;;3.05;1.58;;;4.70;99.90;;;;;;5088254;28;20061;-89
2023/11/14 08:04:37;;;;;;;3.65;1.90;;;4.70;99.90;;;;;;5091334;28;20028;-90
2023/11/14 08:07:07;;;;;;;4.57;1.20;;;4.70;99.90;;;;;;5110385;28;20020;-89
2023/11/14 08:09:33;;;;;;;5.25;2.20;;;4.70;99.90;;;;;;5096092;28;20034;-91
2023/11/14 08:11:59;;;;;;;5.97;2.03;;;4.80;99.90;;;;;;5082245;28;20020;-91
2023/11/14 08:14:26;;;;;;;2.33;1.48;;;4.90;99.90;;;;;;5081670;28;20024;-89
2023/11/14 08:16:52;;;;;;;2.80;1.77;;;5.00;99.90;;;;;;5102123;28;20020;-91
2023/11/14 08:19:18;;;;;;;3.15;1.88;;;5.10;99.90;;;;;;5103048;28;20047;-91
2023/11/14 08:21:44;;;;;;;3.88;2.40;;;5.00;99.90;;;;;;5105491;28;20053;-91
2023/11/14 08:24:09;;;;;;;5.55;2.05;;;5.10;99.90;;;;;;5121678;28;20666;-92
2023/11/14 08:26:35;;;;;;;5.90;2.75;;;5.10;99.90;;;;;;5111836;28;20018;-91
2023/11/14 08:29:01;;;;;;;3.47;2.60;;;5.10;99.90;;;;;;5110569;28;20066;-89
2023/11/14 08:31:27;;;;;;;3.83;2.58;;;5.10;99.90;;;;;;5115458;28;20039;-93
2023/11/14 08:33:55;;;;;;;3.20;2.33;;;5.20;99.90;;;;;;5108362;28;20086;-91
2023/11/14 08:36:21;;;;;;;5.15;2.33;;;5.30;99.90;;;;;;5127998;28;20009;-86
2023/11/14 08:38:46;;;;;;;4.32;2.67;;;5.40;99.90;;;;;;5112902;28;20058;-91
2023/11/14 08:41:13;;;;;;;4.97;2.40;;;5.40;99.90;;;;;;5121732;28;20067;-86
2023/11/14 08:43:40;;;;;;;2.60;1.70;;;5.40;99.90;;;;;;5118307;28;20016;-93
2023/11/14 08:46:07;;;;;;;2.25;1.60;;;5.40;99.90;;;;;;5106540;28;20500;-91
2023/11/14 08:48:33;;;;;;;3.80;2.33;;;5.30;99.90;;;;;;5097082;28;20437;-88
2023/11/14 08:50:59;;;;;;;5.55;2.72;;;5.30;99.90;;;;;;5101595;28;20272;-93
2023/11/14 08:53:25;;;;;;;5.57;2.38;;;5.30;99.90;;;;;;5083558;28;20036;-89
2023/11/14 08:55:53;;;;;;;3.63;2.42;;;5.40;99.90;;;;;;5125253;28;20053;-90
2023/11/14 08:58:19;;;;;;;4.65;1.88;;;5.30;99.90;;;;;;5115903;28;20031;-89
2023/11/14 09:00:47;;;;;;;1.80;1.67;;;5.30;99.90;;;;;;5086846;28;20111;-87
2023/11/14 09:03:13;;;;;;;3.72;2.13;;;5.30;99.90;;;;;;5123327;28;20053;-89
2023/11/14 09:05:39;;;;;;;3.15;1.95;;;5.20;99.90;;;;;;5085380;28;20020;-92
2023/11/14 09:08:05;;;;;;;3.67;2.00;;;5.20;99.90;;;;;;5100459;28;20051;-92
2023/11/14 09:10:37;;;;;;;7.20;5.10;;;5.30;99.90;;;;;;5119326;28;20499;-90
2023/11/14 09:13:03;;;;;;;2.60;2.03;;;5.30;99.90;;;;;;5086862;28;20024;-87
2023/11/14 09:15:29;;;;;;;4.47;2.15;;;5.20;99.90;;;;;;5105019;28;20031;-86
2023/11/14 09:17:55;;;;;;;2.85;1.95;;;5.20;99.90;;;;;;5104429;28;20036;-88
2023/11/14 09:20:21;;;;;;;2.80;1.83;;;5.10;99.90;;;;;;5119614;28;20026;-82
2023/11/14 09:22:46;;;;;;;2.60;2.10;;;5.10;99.90;;;;;;5112268;28;20035;-89
2023/11/14 09:25:12;;;;;;;3.15;1.67;;;5.10;99.90;;;;;;5094823;28;20028;-89
2023/11/14 09:27:38;;;;;;;2.67;1.67;;;5.20;99.90;;;;;;5099211;28;20118;-86
2023/11/14 09:30:05;;;;;;;2.90;1.70;;;5.20;99.90;;;;;;5101155;28;20069;-86
2023/11/14 09:32:31;;;;;;;2.08;1.52;;;5.20;99.90;;;;;;5110364;28;20027;-88
2023/11/14 09:34:57;;;;;;;4.78;2.53;;;5.20;99.90;;;;;;5097843;28;20024;-91
2023/11/14 09:37:23;;;;;;;3.70;2.25;;;5.20;99.90;;;;;;5108927;28;20031;-89
2023/11/14 09:39:50;;;;;;;9.20;5.03;;;5.20;99.90;;;;;;5108454;28;20036;-89
2023/11/14 09:42:16;;;;;;;;;;;5.20;99.90;;;;;;5104514;28;20044;-91
2023/11/14 09:44:43;;;;;;;7.82;2.83;;;5.20;99.90;;;;;;5094056;28;20354;-91
2023/11/14 09:47:10;;;;;;;2.75;1.52;;;5.10;99.90;;;;;;5107546;28;20099;-94
2023/11/14 09:49:42;;;;;;;2.50;1.83;;;5.10;99.90;;;;;;5118863;28;20016;-89
2023/11/14 09:52:10;;;;;;;2.90;1.67;;;5.10;99.90;;;;;;5130744;28;20079;-87
2023/11/14 09:54:37;;;;;;;2.53;1.42;;;5.10;99.90;;;;;;5080942;28;20016;-87
2023/11/14 09:57:04;;;;;;;2.58;1.73;;;5.10;99.90;;;;;;5096765;28;20023;-88
2023/11/14 09:59:33;;;;;;;3.33;1.90;;;5.10;99.90;;;;;;5095478;28;20111;-89
2023/11/14 10:01:59;;;;;;;5.22;2.30;;;5.10;99.90;;;;;;5094511;28;20045;-90
2023/11/14 10:04:25;;;;;;;3.08;1.98;;;5.10;99.90;;;;;;5091944;28;20016;-88
2023/11/14 10:06:52;;;;;;;3.40;1.80;;;5.20;99.90;;;;;;5110352;28;20016;-91
2023/11/14 10:09:21;;;;;;;4.13;2.20;;;5.20;99.90;;;;;;5104340;28;20055;-90
2023/11/14 10:11:48;;;;;;;3.60;1.75;;;5.30;99.90;;;;;;5091074;28;20050;-88
2023/11/14 10:14:14;;;;;;;8.02;2.33;;;5.30;99.90;;;;;;5103213;28;20051;-88
2023/11/14 10:16:41;;;;;;;5.72;2.08;;;5.20;99.90;;;;;;5084537;28;20028;-90
2023/11/14 10:19:12;;;;;;;2.33;1.40;;;5.20;99.90;;;;;;5097571;28;20034;-90
2023/11/14 10:21:38;;;;;;;2.72;1.83;;;5.10;99.90;;;;;;5094577;28;20019;-88
2023/11/14 10:24:12;;;;;;;2.75;1.20;;;5.00;99.90;;;;;;5107218;28;20057;-89
2023/11/14 10:26:53;;;;;;;4.43;1.85;;;5.00;99.90;;;;;;5113298;28;20423;-92
2023/11/14 10:29:21;;;;;;;2.75;2.10;;;5.00;99.90;;;;;;5110001;28;20024;-90
2023/11/14 10:31:47;;;;;;;3.97;2.10;;;5.00;99.90;;;;;;5109006;28;20114;-90
2023/11/14 10:34:33;;;;;;;5.35;2.22;;;5.00;99.90;;;;;;5103485;28;20745;-90
2023/11/14 10:37:18;;;;;;;4.65;1.50;;;5.10;99.90;;;;;;5104681;28;20004;-85
2023/11/14 10:39:53;;;;;;;2.22;1.33;;;5.10;99.90;;;;;;5093988;28;20035;-91
2023/11/14 10:42:20;;;;;;;2.13;1.30;;;5.10;99.90;;;;;;5085336;28;20137;-90
2023/11/14 10:44:59;;;;;;;2.47;0.93;;;5.00;99.90;;;;;;5103594;28;20028;-84
2023/11/14 10:47:41;;;;;;;1.95;1.52;;;5.00;99.90;;;;;;5095547;28;20358;-91
2023/11/14 10:50:27;;;;;;;7.90;4.38;;;4.90;99.90;;;;;;5079489;28;20055;-91
2023/11/14 10:52:55;;;;;;;6.38;3.13;;;4.80;99.90;;;;;;5107184;28;20026;-89
2023/11/14 10:55:22;;;;;;;1.95;1.58;;;4.90;99.90;;;;;;5092354;28;20016;-89
2023/11/14 10:57:54;;;;;;;4.90;1.70;;;4.90;99.90;;;;;;5103309;28;20048;-93
2023/11/14 11:00:21;;;;;;;4.38;2.50;;;5.00;99.90;;;;;;5108337;28;20027;-91
2023/11/14 11:02:52;;;;;;;4.10;2.08;;;5.00;99.90;;;;;;5117307;28;20483;-90
2023/11/14 11:05:27;;;;;;;3.25;1.27;;;5.10;99.90;;;;;;5090467;28;20069;-92
2023/11/14 11:07:53;;;;;;;6.68;2.20;;;5.00;99.90;;;;;;5097484;28;20020;-91
2023/11/14 11:10:19;;;;;;;3.85;1.65;;;5.00;99.90;;;;;;5089640;28;20106;-88
2023/11/14 11:12:46;;;;;;;3.95;2.08;;;5.00;99.90;;;;;;5114045;28;20032;-92
2023/11/14 11:15:12;;;;;;;5.47;2.92;;;4.90;99.90;;;;;;5069881;28;20024;-87
2023/11/14 11:17:41;;;;;;;5.18;2.28;;;5.00;99.90;;;;;;5100060;28;20028;-88
2023/11/14 11:20:09;;;;;;;6.20;3.15;;;5.00;99.90;;;;;;5113577;28;20016;-88
2023/11/14 11:23:04;;;;;;;4.00;1.92;;;4.90;99.90;;;;;;5102723;28;20031;-87
2023/11/14 11:25:31;;;;;;;5.30;2.55;;;4.90;99.90;;;;;;5119503;28;20043;-87
2023/11/14 11:27:58;;;;;;;7.95;3.92;;;4.80;99.90;;;;;;5129333;28;20029;-87
2023/11/14 11:30:26;;;;;;;7.30;4.53;;;4.90;99.90;;;;;;5082670;28;20031;-86
2023/11/14 11:32:55;;;;;;;3.03;2.20;;;4.90;99.90;;;;;;5113595;28;20027;-88
2023/11/14 11:35:26;;;;;;;4.00;1.83;;;4.80;99.90;;;;;;5099228;28;20023;-91
2023/11/14 11:38:13;;;;;;;5.35;2.53;;;4.80;99.90;;;;;;5099031;28;20508;-89
2023/11/14 11:41:08;;;;;;;7.65;2.38;;;4.70;99.90;;;;;;5085189;28;20047;-91
2023/11/14 11:43:38;;;;;;;3.10;1.85;;;4.70;99.90;;;;;;5098527;28;20035;-88
2023/11/14 11:46:31;;;;;;;2.72;1.77;;;4.60;99.90;;;;;;5119454;28;20030;-89
2023/11/14 11:49:22;;;;;;;2.95;1.92;;;4.60;99.90;;;;;;5118789;28;20126;-91
2023/11/14 11:51:48;;;;;;;3.95;2.08;;;4.60;99.90;;;;;;5097317;28;20126;-92
2023/11/14 11:54:34;;;;;;;2.58;1.63;;;4.60;99.90;;;;;;5125830;28;20012;-90
2023/11/14 11:57:19;;;;;;;2.78;1.90;;;4.60;99.90;;;;;;5112321;28;20123;-92
2023/11/14 11:59:50;;;;;;;4.75;2.10;;;4.60;99.90;;;;;;5101683;28;20400;-89
2023/11/14 12:02:23;;;;;;;1.73;1.20;;;4.60;99.90;;;;;;5092239;28;20016;-92
2023/11/14 12:04:51;;;;;;;3.10;1.50;;;4.60;99.90;;;;;;5093252;28;20019;-89
2023/11/14 12:07:18;;;;;;;13.13;6.28;;;4.60;99.90;;;;;;5080341;28;20012;-92
2023/11/14 12:09:47;;;;;;;3.47;1.80;;;4.60;99.90;;;;;;5108370;28;20013;-91
2023/11/14 12:12:19;;;;;;;5.13;3.13;;;4.50;99.90;;;;;;5094021;28;20027;-93
2023/11/14 12:14:45;;;;;;;3.17;1.90;;;4.50;99.90;;;;;;5080273;28;20036;-91
2023/11/14 12:17:11;;;;;;;4.55;2.42;;;4.50;99.90;;;;;;5099482;28;20083;-90
2023/11/14 12:19:38;;;;;;;4.00;2.13;;;4.50;99.90;;;;;;5102018;28;20047;-93
2023/11/14 12:22:06;;;;;;;3.28;1.42;;;4.40;99.90;;;;;;5101336;28;20027;-89
2023/11/14 12:24:33;;;;;;;6.38;2.38;;;4.40;99.90;;;;;;5105027;28;20448;-89
2023/11/14 12:26:59;;;;;;;5.57;2.17;;;4.40;99.90;;;;;;5081597;28;20043;-93
2023/11/14 12:29:25;;;;;;;6.80;3.22;;;4.40;99.90;;;;;;5078505;28;20027;-90
2023/11/14 12:31:52;;;;;;;4.57;1.55;;;4.40;99.90;;;;;;5084402;28;20016;-90
2023/11/14 12:34:28;;;;;;;3.85;2.67;;;4.50;99.90;;;;;;5101969;28;20455;-92
2023/11/14 12:37:14;;;;;;;5.45;2.42;;;4.40;99.90;;;;;;5093892;28;20542;-90
2023/11/14 12:39:40;;;;;;;2.33;1.10;;;4.40;99.90;;;;;;5103828;28;20051;-82
2023/11/14 12:42:07;;;;;;;4.00;2.03;;;4.30;99.90;;;;;;5108209;28;20043;-88
2023/11/14 12:44:34;;;;;;;3.13;2.05;;;4.30;99.90;;;;;;5084295;28;20028;-85
2023/11/14 12:47:00;;;;;;;3.30;2.25;;;4.20;99.90;;;;;;5086319;28;20035;-88
2023/11/14 12:49:27;;;;;;;2.80;1.85;;;4.20;99.90;;;;;;5086087;28;20504;-87
2023/11/14 12:51:54;;;;;;;3.83;2.03;;;4.20;99.90;;;;;;5079629;28;20021;-92
2023/11/14 12:54:22;;;;;;;3.60;1.83;;;4.20;99.90;;;;;;5084164;28;20381;-82
2023/11/14 12:56:49;;;;;;;3.97;1.90;;;4.20;99.90;;;;;;5118985;28;20020;-87
2023/11/14 12:59:16;;;;;;;2.25;1.50;;;4.20;99.90;;;;;;5116025;28;20043;-89